createdAt,value
2019-02-04T00:00:17.259Z,17.67
2019-02-04T00:05:12.335Z,18.77
2019-02-04T00:10:11.660Z,18.47
2019-02-04T00:15:09.993Z,18.03
2019-02-04T00:20:07.698Z,18.47
2019-02-04T00:25:02.286Z,18.93
2019-02-04T00:29:56.886Z,19.37
2019-02-04T00:34:51.474Z,18.17
2019-02-04T00:39:46.073Z,17.77
2019-02-04T00:44:40.650Z,18.87
2019-02-04T00:49:35.259Z,18.03
2019-02-04T00:54:29.950Z,18.57
2019-02-04T00:59:24.559Z,18.50
2019-02-04T01:04:19.132Z,19.20
2019-02-04T01:09:15.036Z,19.67
2019-02-04T01:14:10.023Z,17.83
2019-02-04T01:19:04.772Z,20.03
2019-02-04T01:23:59.338Z,20.00
2019-02-04T01:28:53.956Z,19.20
2019-02-04T01:33:48.509Z,18.23
2019-02-04T01:38:43.107Z,16.87
2019-02-04T01:43:37.883Z,16.90
2019-02-04T01:48:32.480Z,17.17
2019-02-04T01:53:27.099Z,17.43
2019-02-04T01:58:21.683Z,16.97
2019-02-04T02:03:16.260Z,17.60
2019-02-04T02:08:10.850Z,17.07
2019-02-04T02:13:05.563Z,17.27
2019-02-04T02:18:00.389Z,17.93
2019-02-04T02:22:55.044Z,17.57
2019-02-04T02:27:49.717Z,16.97
2019-02-04T02:32:44.306Z,16.93
2019-02-04T02:37:38.903Z,17.50
2019-02-04T02:42:33.478Z,16.70
2019-02-04T02:47:38.178Z,15.50
2019-02-04T02:52:24.368Z,16.13
2019-02-04T02:57:19.080Z,15.60
2019-02-04T03:02:13.739Z,14.43
2019-02-04T03:07:08.347Z,15.20
2019-02-04T03:12:02.952Z,14.70
2019-02-04T03:16:57.559Z,14.53
2019-02-04T03:21:52.188Z,15.30
2019-02-04T03:26:46.787Z,14.47
2019-02-04T03:31:45.792Z,15.37
2019-02-04T03:36:37.691Z,14.63
2019-02-04T03:41:33.321Z,14.07
2019-02-04T03:46:27.927Z,15.77
2019-02-04T03:51:22.531Z,16.07
2019-02-04T03:56:17.128Z,16.07
2019-02-04T04:01:11.765Z,13.30
2019-02-04T04:06:06.448Z,13.93
2019-02-04T04:11:01.070Z,13.97
2019-02-04T04:15:55.758Z,12.90
2019-02-04T04:20:50.370Z,12.57
2019-02-04T04:25:44.970Z,13.40
2019-02-04T04:30:39.565Z,13.50
2019-02-04T04:35:34.200Z,13.57
2019-02-04T04:40:28.818Z,15.20
2019-02-04T04:45:26.211Z,16.03
2019-02-04T04:50:20.888Z,16.27
2019-02-04T04:55:25.933Z,16.77
2019-02-04T05:00:24.747Z,17.13
2019-02-04T05:05:19.334Z,18.97
2019-02-04T05:10:18.309Z,19.00
2019-02-04T05:15:19.789Z,19.70
2019-02-04T05:20:17.533Z,18.10
2019-02-04T05:25:12.675Z,18.27
2019-02-04T05:30:12.105Z,18.37
2019-02-04T05:35:06.921Z,19.40
2019-02-04T05:40:01.523Z,18.57
2019-02-04T05:44:56.236Z,18.30
2019-02-04T05:49:51.202Z,17.87
2019-02-04T05:54:45.813Z,17.63
2019-02-04T05:59:40.425Z,19.57
2019-02-04T06:04:35.078Z,19.00
2019-02-04T06:09:29.663Z,19.03
2019-02-04T06:14:24.276Z,16.80
2019-02-04T06:19:18.870Z,19.97
2019-02-04T06:24:13.774Z,18.30
2019-02-04T06:29:08.373Z,18.77
2019-02-04T06:34:03.172Z,17.33
2019-02-04T06:38:57.771Z,17.63
2019-02-04T06:43:52.382Z,18.10
2019-02-04T06:48:46.968Z,17.23
2019-02-04T06:53:41.919Z,17.70
2019-02-04T06:58:36.532Z,19.73
2019-02-04T07:03:31.239Z,17.90
2019-02-04T07:08:25.864Z,18.67
2019-02-04T07:13:20.484Z,17.20
2019-02-04T07:18:15.085Z,17.50
2019-02-04T07:23:09.662Z,15.57
2019-02-04T07:28:04.298Z,16.00
2019-02-04T07:32:59.252Z,18.10
2019-02-04T07:37:54.081Z,16.47
2019-02-04T07:42:50.008Z,17.80
2019-02-04T07:47:44.992Z,16.27
2019-02-04T07:52:40.150Z,15.17
2019-02-04T07:57:35.788Z,16.37
2019-02-04T08:02:30.445Z,18.20
2019-02-04T08:07:25.592Z,15.67
2019-02-04T08:12:20.547Z,16.17
2019-02-04T08:17:15.272Z,17.17
2019-02-04T08:22:09.997Z,15.73
2019-02-04T08:27:06.214Z,17.50
2019-02-04T08:32:03.924Z,17.20
2019-02-04T08:36:59.238Z,17.43
2019-02-04T08:41:54.404Z,16.77
2019-02-04T08:47:02.410Z,15.53
2019-02-04T08:52:12.189Z,14.67
2019-02-04T08:57:06.888Z,15.50
2019-02-04T09:02:01.779Z,14.87
2019-02-04T09:07:28.759Z,13.10
2019-02-04T09:12:24.574Z,11.97
2019-02-04T09:17:20.285Z,11.73
2019-02-04T09:22:16.492Z,12.17
2019-02-04T09:27:12.245Z,12.80
2019-02-04T09:32:09.767Z,15.97
2019-02-04T09:37:05.759Z,19.17
2019-02-04T09:42:05.090Z,14.00
2019-02-04T09:47:01.544Z,14.00
2019-02-04T09:51:58.134Z,18.07
2019-02-04T09:56:54.061Z,17.87
2019-02-04T10:01:49.972Z,17.73
2019-02-04T10:06:46.250Z,20.23
2019-02-04T10:11:42.094Z,19.50
2019-02-04T10:16:38.067Z,17.67
2019-02-04T10:21:34.365Z,15.80
2019-02-04T10:26:30.779Z,18.50
2019-02-04T10:31:27.536Z,18.13
2019-02-04T10:36:24.503Z,17.00
2019-02-04T10:41:20.398Z,18.83
2019-02-04T10:46:16.108Z,19.07
2019-02-04T10:51:12.432Z,16.37
2019-02-04T10:56:09.199Z,16.10
2019-02-04T11:01:08.732Z,17.53
2019-02-04T11:06:04.798Z,17.83
2019-02-04T11:10:59.597Z,18.33
2019-02-04T11:15:54.387Z,19.53
2019-02-04T11:20:57.743Z,16.43
2019-02-04T11:25:46.008Z,16.03
2019-02-04T11:30:56.573Z,15.57
2019-02-04T11:35:51.341Z,16.13
2019-02-04T11:40:46.623Z,16.47
2019-02-04T11:45:41.365Z,16.10
2019-02-04T11:50:36.348Z,16.23
2019-02-04T11:55:31.359Z,15.13
2019-02-04T12:00:32.207Z,11.33
2019-02-04T12:05:28.049Z,10.03
2019-02-04T12:10:43.647Z,10.70
2019-02-04T12:15:45.385Z,11.43
2019-02-04T12:20:40.444Z,11.57
2019-02-04T12:25:35.193Z,10.67
2019-02-04T12:30:44.295Z,10.10
2019-02-04T12:35:40.514Z,10.70
2019-02-04T12:40:36.779Z,9.83
2019-02-04T12:45:42.432Z,10.07
2019-02-04T12:50:39.041Z,10.53
2019-02-04T12:55:37.911Z,10.30
2019-02-04T13:00:35.292Z,11.40
2019-02-04T13:05:48.858Z,10.77
2019-02-04T13:10:46.586Z,10.53
2019-02-04T13:15:44.244Z,10.33
2019-02-04T13:20:40.838Z,9.13
2019-02-04T13:25:41.935Z,9.63
2019-02-04T13:30:38.675Z,9.40
2019-02-04T13:35:35.591Z,9.43
2019-02-04T13:40:32.611Z,10.23
2019-02-04T13:45:34.065Z,9.80
2019-02-04T13:50:30.520Z,10.07
2019-02-04T13:55:40.870Z,10.73
2019-02-04T14:00:39.051Z,10.50
2019-02-04T14:05:35.773Z,10.90
2019-02-04T14:10:39.063Z,10.23
2019-02-04T14:15:35.613Z,9.20
2019-02-04T14:20:34.522Z,10.47
2019-02-04T14:25:29.611Z,8.60
2019-02-04T14:30:37.525Z,9.00
2019-02-04T14:35:35.622Z,9.57
2019-02-04T14:40:31.054Z,10.33
2019-02-04T14:46:17.438Z,9.80
2019-02-04T14:51:52.754Z,9.07
2019-02-04T14:57:38.882Z,9.70
2019-02-04T15:02:49.370Z,10.80
2019-02-04T15:08:33.465Z,10.03
2019-02-04T15:14:14.314Z,10.90
2019-02-04T15:19:40.523Z,10.53
2019-02-04T15:25:25.323Z,10.20
2019-02-04T15:30:33.600Z,10.30
2019-02-04T15:35:56.675Z,9.93
2019-02-04T15:41:07.045Z,11.17
2019-02-04T15:46:18.392Z,11.07
2019-02-04T15:51:23.411Z,10.40
2019-02-04T15:56:18.483Z,12.03
2019-02-04T16:01:13.131Z,10.90
2019-02-04T16:06:07.725Z,11.73
2019-02-04T16:11:02.403Z,10.60
2019-02-04T16:15:57.859Z,13.00
2019-02-04T16:20:52.883Z,10.50
2019-02-04T16:25:47.591Z,10.70
2019-02-04T16:30:42.352Z,10.97
2019-02-04T16:35:36.951Z,11.13
2019-02-04T16:40:31.591Z,11.20
2019-02-04T16:45:26.484Z,13.27
2019-02-04T16:50:26.467Z,13.43
2019-02-04T16:55:21.340Z,11.00
2019-02-04T17:00:26.065Z,11.27
2019-02-04T17:05:22.461Z,12.03
2019-02-04T17:10:20.874Z,12.03
2019-02-04T17:15:15.785Z,12.13
2019-02-04T17:20:17.861Z,12.47
2019-02-04T17:25:12.571Z,12.27
2019-02-04T17:30:14.659Z,11.53
2019-02-04T17:35:09.659Z,13.40
2019-02-04T17:40:06.726Z,12.37
2019-02-04T17:45:01.313Z,13.23
2019-02-04T17:49:56.299Z,12.43
2019-02-04T17:54:50.944Z,12.60
2019-02-04T17:59:45.577Z,12.37
2019-02-04T18:04:40.263Z,13.03
2019-02-04T18:09:34.880Z,14.53
2019-02-04T18:14:29.496Z,14.00
2019-02-04T18:19:24.254Z,13.97
2019-02-04T18:24:18.846Z,14.43
2019-02-04T18:29:13.444Z,14.57
2019-02-04T18:34:08.139Z,14.57
2019-02-04T18:39:02.732Z,13.80
2019-02-04T18:43:57.317Z,14.00
2019-02-04T18:48:52.394Z,14.87
2019-02-04T18:53:57.353Z,14.00
2019-02-04T18:58:43.309Z,14.80
2019-02-04T19:03:38.002Z,14.70
2019-02-04T19:08:32.598Z,14.53
2019-02-04T19:13:35.843Z,14.33
2019-02-04T19:18:23.662Z,14.77
2019-02-04T19:23:18.252Z,14.17
2019-02-04T19:28:12.880Z,14.83
2019-02-04T19:33:07.623Z,15.00
2019-02-04T19:38:02.237Z,14.80
2019-02-04T19:42:56.895Z,15.73
2019-02-04T19:47:51.607Z,15.57
2019-02-04T19:52:46.230Z,15.57
2019-02-04T19:57:43.876Z,16.60
2019-02-04T20:02:37.261Z,15.97
2019-02-04T20:07:32.244Z,15.53
2019-02-04T20:12:26.846Z,16.17
2019-02-04T20:17:21.435Z,16.57
2019-02-04T20:22:16.033Z,17.17
2019-02-04T20:27:10.637Z,17.70
2019-02-04T20:32:05.398Z,18.30
2019-02-04T20:36:59.970Z,16.97
2019-02-04T20:41:54.563Z,17.23
2019-02-04T20:46:49.157Z,18.00
2019-02-04T20:51:43.763Z,17.47
2019-02-04T20:56:38.426Z,16.97
2019-02-04T21:01:33.741Z,18.37
2019-02-04T21:06:28.346Z,17.43
2019-02-04T21:11:22.950Z,17.90
2019-02-04T21:16:17.662Z,17.93
2019-02-04T21:21:12.239Z,18.27
2019-02-04T21:26:07.165Z,18.30
2019-02-04T21:31:01.865Z,18.57
2019-02-04T21:35:56.526Z,18.20
2019-02-04T21:40:51.186Z,18.30
2019-02-04T21:45:45.870Z,17.80
2019-02-04T21:50:40.614Z,19.13
2019-02-04T21:55:35.690Z,18.73
2019-02-04T22:00:34.174Z,18.73
2019-02-04T22:05:35.251Z,17.80
2019-02-04T22:10:31.823Z,18.93
2019-02-04T22:15:26.525Z,19.33
2019-02-04T22:20:22.331Z,18.57
2019-02-04T22:25:26.117Z,19.27
2019-02-04T22:30:27.151Z,18.30
2019-02-04T22:35:21.776Z,19.03
2019-02-04T22:40:25.488Z,19.63
2019-02-04T22:45:20.893Z,19.80
2019-02-04T22:50:28.376Z,19.60
2019-02-04T22:55:31.725Z,20.53
2019-02-04T23:00:29.805Z,20.17
2019-02-04T23:05:24.526Z,19.60
2019-02-04T23:10:19.394Z,19.00
2019-02-04T23:15:14.210Z,21.10
2019-02-04T23:20:10.333Z,20.50
2019-02-04T23:25:07.144Z,20.20
2019-02-04T23:30:01.727Z,19.17
2019-02-04T23:34:56.348Z,19.53
2019-02-04T23:39:50.943Z,20.23
2019-02-04T23:44:45.534Z,20.90
2019-02-04T23:49:40.122Z,20.53
2019-02-04T23:54:34.719Z,21.07
2019-02-04T23:59:29.313Z,21.57
